Time;durP1;ratioP1;P1;durP2;ratioP2;P2;SDS_P1;SDS_P2;PMS_P1;PMS_P2;Temp;Humidity;BMP_temperature;BMP_pressure;BME280_temperature;BME280_humidity;BME280_pressure;Samples;Min_cycle;Max_cycle;Signal;HPM_P1;HPM_P2
2024/01/06 00:02:06;;;;;;;5.57;5.18;;;;;;;5.98;100.00;99566.03;6133930;23;20059;-72
2024/01/06 00:04:38;;;;;;;4.57;4.38;;;;;;;6.45;100.00;99637.44;6112042;23;20009;-71
2024/01/06 00:07:14;;;;;;;6.53;5.95;;;;;;;6.44;100.00;99647.97;6116405;23;20158;-72
2024/01/06 00:09:41;;;;;;;5.32;5.03;;;;;;;6.24;100.00;99635.94;6135925;23;20525;-73
2024/01/06 00:12:09;;;;;;;5.75;5.32;;;;;;;6.39;100.00;99688.13;6140728;23;20102;-72
2024/01/06 00:14:56;;;;;;;5.32;4.93;;;;;;;5.73;100.00;99560.34;6093065;23;20018;-71
2024/01/06 00:17:24;;;;;;;5.40;5.10;;;;;;;5.20;100.00;99476.25;6077330;23;21746;-72
2024/01/06 00:20:02;;;;;;;5.80;5.47;;;;;;;5.47;100.00;99559.03;6090582;23;20025;-71
2024/01/06 00:22:35;;;;;;;5.38;5.07;;;;;;;5.41;100.00;99528.97;6081654;23;20072;-74
2024/01/06 00:25:03;;;;;;;7.60;7.00;;;;;;;6.07;100.00;99665.44;6051854;23;20006;-74
2024/01/06 00:27:33;;;;;;;5.18;4.88;;;;;;;5.33;100.00;99542.38;6109126;23;20060;-72
2024/01/06 00:30:00;;;;;;;5.72;5.32;;;;;;;5.64;100.00;99594.66;6078754;23;20013;-74
2024/01/06 00:32:54;;;;;;;6.82;5.28;;;;;;;6.22;100.00;99703.75;6062540;23;20050;-70
2024/01/06 00:35:23;;;;;;;6.47;5.80;;;;;;;6.19;100.00;99712.59;6113207;23;20026;-72
2024/01/06 00:37:55;;;;;;;6.47;5.90;;;;;;;5.41;100.00;99583.59;6082062;23;20049;-73
2024/01/06 00:40:26;;;;;;;5.73;5.20;;;;;;;6.27;100.00;99724.38;6088252;23;20499;-74
2024/01/06 00:42:54;;;;;;;7.47;6.82;;;;;;;6.27;100.00;99726.97;6104802;23;20029;-73
2024/01/06 00:45:26;;;;;;;6.00;5.57;;;;;;;6.23;100.00;99722.84;6117450;23;20020;-73
2024/01/06 00:47:56;;;;;;;4.95;4.55;;;;;;;6.06;100.00;99693.25;6115621;23;20107;-71
2024/01/06 00:50:24;;;;;;;5.60;5.20;;;;;;;6.28;100.00;99733.88;6118015;23;20065;-71
2024/01/06 00:52:52;;;;;;;6.15;5.72;;;;;;;5.99;100.00;99690.13;6114303;23;20038;-73
2024/01/06 00:55:24;;;;;;;6.40;5.80;;;;;;;6.04;100.00;99702.91;6087139;23;20214;-73
2024/01/06 00:57:54;;;;;;;4.78;4.55;;;;;;;6.25;100.00;99745.28;6146077;23;20107;-74
2024/01/06 01:00:21;;;;;;;5.93;5.50;;;;;;;6.08;100.00;99727.06;6106649;23;20016;-71
2024/01/06 01:02:57;;;;;;;7.65;5.70;;;;;;;6.25;100.00;99742.66;6139498;23;20017;-72
2024/01/06 01:05:28;;;;;;;6.07;5.63;;;;;;;2.18;100.00;99133.88;6107999;23;20029;-72
2024/01/06 01:07:56;;;;;;;5.90;5.35;;;;;;;5.18;100.00;99600.34;6120011;23;20055;-74
2024/01/06 01:10:24;;;;;;;5.50;5.05;;;;;;;5.75;100.00;99658.31;6116048;23;20041;-73
2024/01/06 01:12:52;;;;;;;6.95;6.32;;;;;;;5.58;100.00;99640.06;6144022;23;20123;-71
2024/01/06 01:15:20;;;;;;;6.88;6.38;;;;;;;6.32;100.00;99756.25;6147573;23;20084;-72
2024/01/06 01:17:49;;;;;;;6.13;5.53;;;;;;;6.34;100.00;99754.41;6119896;23;20032;-71
2024/01/06 01:20:38;;;;;;;6.22;5.75;;;;;;;5.88;100.00;99681.97;6144675;23;20047;-71
2024/01/06 01:23:06;;;;;;;5.90;5.50;;;;;;;6.32;100.00;99757.09;6113372;23;20025;-73
2024/01/06 01:25:38;;;;;;;5.75;5.25;;;;;;;6.35;100.00;99762.16;6118364;23;20013;-73
2024/01/06 01:28:11;;;;;;;5.97;5.47;;;;;;;6.36;100.00;99766.44;6143097;23;20500;-72
2024/01/06 01:30:41;;;;;;;7.07;6.38;;;;;;;6.38;100.00;99782.84;6111333;23;20092;-72
2024/01/06 01:33:10;;;;;;;6.18;5.70;;;;;;;6.32;100.00;99770.13;6142849;23;20024;-71
2024/01/06 01:35:38;;;;;;;6.70;6.03;;;;;;;5.37;100.00;99641.91;6124764;23;20044;-73
2024/01/06 01:38:08;;;;;;;6.40;5.90;;;;;;;6.32;100.00;99777.94;6147832;23;20467;-71
2024/01/06 01:40:39;;;;;;;7.03;6.38;;;;;;;6.34;100.00;99783.91;6119657;23;20017;-73
2024/01/06 01:43:16;;;;;;;8.45;7.75;;;;;;;5.25;100.00;99603.47;6145752;23;20223;-72
2024/01/06 01:45:45;;;;;;;5.43;5.13;;;;;;;6.17;100.00;99766.53;6090717;23;20022;-71
2024/01/06 01:48:19;;;;;;;5.22;4.88;;;;;;;6.05;100.00;99732.41;6121564;23;20010;-71
2024/01/06 01:50:49;;;;;;;6.28;5.78;;;;;;;6.41;100.00;99797.47;6150632;23;20036;-72
2024/01/06 01:53:17;;;;;;;5.93;5.53;;;;;;;6.41;100.00;99812.28;6093705;23;20135;-72
2024/01/06 01:55:50;;;;;;;8.52;5.85;;;;;;;6.42;100.00;99801.78;6149926;23;20463;-72
2024/01/06 01:58:25;;;;;;;7.28;6.03;;;;;;;6.43;100.00;99849.53;6113682;23;20022;-73
2024/01/06 02:00:54;;;;;;;6.65;6.10;;;;;;;6.45;100.00;99808.59;6122998;23;20171;-73
2024/01/06 02:03:33;;;;;;;9.93;7.53;;;;;;;6.45;100.00;99806.00;6129309;23;20005;-71
2024/01/06 02:06:08;;;;;;;7.15;6.53;;;;;;;5.88;100.00;99710.59;6118547;23;20124;-71
2024/01/06 02:08:36;;;;;;;6.50;5.88;;;;;;;6.42;100.00;99822.63;6118052;23;20483;-73
2024/01/06 02:11:07;;;;;;;7.50;7.00;;;;;;;6.42;100.00;99806.16;6142947;23;20037;-73
2024/01/06 02:13:36;;;;;;;5.82;5.32;;;;;;;5.64;100.00;99704.81;6124356;23;20033;-73
2024/01/06 02:16:05;;;;;;;6.38;5.78;;;;;;;6.41;100.00;99817.50;6144818;23;20358;-72
2024/01/06 02:18:33;;;;;;;5.75;5.32;;;;;;;6.35;100.00;99814.28;6122398;23;20016;-74
2024/01/06 02:21:03;;;;;;;10.50;7.63;;;;;;;5.13;100.00;99607.50;6122588;23;20052;-71
2024/01/06 02:23:31;;;;;;;8.35;7.50;;;;;;;6.48;100.00;99821.50;6119955;23;20610;-74
2024/01/06 02:26:04;;;;;;;6.35;5.90;;;;;;;6.27;100.00;99803.38;6113045;23;20428;-72
2024/01/06 02:28:32;;;;;;;5.65;5.15;;;;;;;6.06;100.00;99765.34;6145121;23;20029;-72
2024/01/06 02:31:06;;;;;;;13.23;7.40;;;;;;;6.39;100.00;99828.84;6130027;23;20384;-72
2024/01/06 02:33:45;;;;;;;7.65;6.50;;;;;;;6.39;100.00;99831.47;6122651;23;20041;-70
2024/01/06 02:36:13;;;;;;;5.97;5.50;;;;;;;6.36;100.00;99857.66;6140540;23;20613;-71
2024/01/06 02:38:49;;;;;;;7.22;6.63;;;;;;;6.32;100.00;99832.66;6122087;23;20488;-72
2024/01/06 02:41:19;;;;;;;6.75;6.15;;;;;;;6.31;100.00;99849.19;6108618;23;20506;-73
2024/01/06 02:43:56;;;;;;;9.15;6.75;;;;;;;5.42;100.00;99696.34;6123259;23;20029;-73
2024/01/06 02:46:27;;;;;;;9.40;6.07;;;;;;;5.98;100.00;99812.59;6116590;23;20106;-72
2024/01/06 02:48:55;;;;;;;7.95;7.25;;;;;;;5.28;100.00;99689.19;6145314;23;20017;-72
2024/01/06 02:51:26;;;;;;;6.75;6.15;;;;;;;6.07;100.00;99851.22;6123882;23;20019;-72
2024/01/06 02:54:14;;;;;;;6.03;5.35;;;;;;;6.36;100.00;99870.69;6118498;23;20017;-71
2024/01/06 02:56:42;;;;;;;6.78;6.07;;;;;;;6.38;100.00;99873.22;6141391;23;20083;-70
2024/01/06 02:59:13;;;;;;;5.85;5.38;;;;;;;3.88;100.00;99453.91;6125292;23;20009;-70
2024/01/06 03:01:41;;;;;;;7.28;6.53;;;;;;;5.89;100.00;99785.19;6150315;23;20029;-73
2024/01/06 03:04:14;;;;;;;7.07;6.22;;;;;;;6.48;100.00;99881.44;6125258;23;20388;-71
2024/01/06 03:06:41;;;;;;;8.15;7.35;;;;;;;5.73;100.00;99779.03;6119586;23;20487;-74
2024/01/06 03:09:09;;;;;;;11.65;8.68;;;;;;;5.38;100.00;99706.06;6124406;23;20036;-73
2024/01/06 03:11:36;;;;;;;8.93;5.95;;;;;;;5.83;100.00;99803.69;6151057;23;20108;-73
2024/01/06 03:14:05;;;;;;;8.75;8.05;;;;;;;6.45;100.00;99894.63;6113956;23;20018;-72
2024/01/06 03:16:33;;;;;;;9.10;7.13;;;;;;;6.42;100.00;99886.97;6100588;23;20034;-73
2024/01/06 03:19:01;;;;;;;8.30;7.70;;;;;;;5.43;100.00;99727.47;6091735;23;20079;-71
2024/01/06 03:21:29;;;;;;;8.20;7.40;;;;;;;6.46;100.00;99899.75;6117671;23;20012;-73
2024/01/06 03:23:59;;;;;;;7.82;7.00;;;;;;;5.23;100.00;99701.56;6096782;23;20025;-74
2024/01/06 03:26:29;;;;;;;8.52;6.22;;;;;;;5.25;100.00;99708.38;6117340;23;20327;-73
2024/01/06 03:29:02;;;;;;;10.68;9.07;;;;;;;6.14;100.00;99862.22;6090485;23;20045;-72
2024/01/06 03:31:30;;;;;;;8.40;7.28;;;;;;;5.59;100.00;99772.72;6091491;23;20401;-73
2024/01/06 03:33:58;;;;;;;8.90;7.25;;;;;;;6.15;100.00;99869.09;6095778;23;20033;-73
2024/01/06 03:36:26;;;;;;;6.93;6.35;;;;;;;6.50;100.00;99922.16;6090144;23;20081;-74
2024/01/06 03:39:03;;;;;;;7.60;7.03;;;;;;;6.12;100.00;99866.66;6090017;23;20049;-73
2024/01/06 03:41:33;;;;;;;8.02;7.43;;;;;;;6.05;100.00;99858.25;6112108;23;20282;-72
2024/01/06 03:44:05;;;;;;;9.27;7.07;;;;;;;5.70;100.00;99832.06;6091901;23;20030;-71
2024/01/06 03:46:37;;;;;;;9.82;7.93;;;;;;;4.69;100.00;99624.25;6084497;23;20040;-72
2024/01/06 03:49:05;;;;;;;8.35;7.53;;;;;;;6.51;100.00;99938.63;6089350;23;20167;-74
2024/01/06 03:51:37;;;;;;;10.05;7.18;;;;;;;6.15;100.00;99884.72;6090176;23;20022;-71
2024/01/06 03:54:18;;;;;;;7.40;6.80;;;;;;;5.97;100.00;99869.06;6117100;23;20906;-73
2024/01/06 03:56:56;;;;;;;9.05;8.23;;;;;;;6.23;100.00;99887.81;6110823;23;20106;-73
2024/01/06 03:59:28;;;;;;;9.25;7.60;;;;;;;6.67;100.00;99952.63;6084761;23;20316;-73
2024/01/06 04:02:01;;;;;;;18.95;7.85;;;;;;;6.65;100.00;99932.75;6091995;23;20032;-73
2024/01/06 04:04:29;;;;;;;9.70;8.38;;;;;;;6.65;100.00;99933.59;6088496;23;20037;-72
2024/01/06 04:07:01;;;;;;;12.80;8.80;;;;;;;6.06;100.00;99838.28;6090768;23;20107;-71
2024/01/06 04:09:28;;;;;;;8.25;7.25;;;;;;;5.69;100.00;99777.47;6091527;23;20029;-72
2024/01/06 04:12:00;;;;;;;7.00;6.28;;;;;;;5.70;100.00;99800.00;6100343;23;20045;-72
2024/01/06 04:14:29;;;;;;;10.20;7.82;;;;;;;6.55;100.00;99925.38;6107101;23;20177;-72
2024/01/06 04:16:56;;;;;;;13.50;8.98;;;;;;;5.39;100.00;99758.03;6144671;23;20419;-74
2024/01/06 04:19:30;;;;;;;7.97;7.32;;;;;;;6.12;100.00;99884.88;6119588;23;20054;-72
2024/01/06 04:22:00;;;;;;;6.90;6.32;;;;;;;5.50;100.00;99783.53;6144414;23;20025;-72
2024/01/06 04:24:28;;;;;;;7.90;6.50;;;;;;;5.24;100.00;99756.09;6120006;23;20085;-72
2024/01/06 04:26:56;;;;;;;9.25;8.15;;;;;;;6.31;100.00;99932.59;6139022;23;20506;-74
2024/01/06 04:29:29;;;;;;;9.05;7.25;;;;;;;6.22;100.00;99930.44;6118483;23;20078;-72
2024/01/06 04:31:57;;;;;;;7.18;6.20;;;;;;;5.86;100.00;99884.28;6145426;23;20220;-72
2024/01/06 04:34:25;;;;;;;8.10;7.30;;;;;;;6.06;100.00;99917.28;6119394;23;20022;-72
2024/01/06 04:36:59;;;;;;;10.20;8.32;;;;;;;4.65;100.00;99710.19;6129043;23;20053;-73
2024/01/06 04:39:28;;;;;;;13.00;7.45;;;;;;;3.60;100.00;99564.91;6103976;23;20028;-72
2024/01/06 04:42:05;;;;;;;12.57;7.15;;;;;;;5.67;100.00;99893.84;6145661;23;20025;-72
2024/01/06 04:44:35;;;;;;;6.50;6.03;;;;;;;5.22;100.00;99817.75;6114490;23;20016;-71
2024/01/06 04:47:07;;;;;;;8.45;7.85;;;;;;;5.58;100.00;99872.53;6141916;23;20013;-73
2024/01/06 04:49:38;;;;;;;4.85;4.55;;;;;;;5.37;100.00;99827.50;6111446;23;20259;-70
2024/01/06 04:52:08;;;;;;;6.13;5.63;;;;;;;5.53;100.00;99848.47;6148045;23;20028;-71
2024/01/06 04:54:39;;;;;;;6.35;5.75;;;;;;;5.46;100.00;99843.63;6120839;23;20095;-74
2024/01/06 04:57:06;;;;;;;7.63;7.03;;;;;;;5.24;100.00;99807.31;6145746;23;20012;-71
2024/01/06 04:59:36;;;;;;;7.57;6.80;;;;;;;5.14;100.00;99801.66;6135936;23;20783;-73
2024/01/06 05:02:10;;;;;;;5.25;4.78;;;;;;;5.15;100.00;99806.81;6146363;23;20212;-72
2024/01/06 05:04:38;;;;;;;7.18;4.82;;;;;;;5.21;100.00;99829.06;6126309;23;20342;-69
2024/01/06 05:07:08;;;;;;;5.80;5.28;;;;;;;5.15;100.00;99830.22;6146198;23;20025;-72
2024/01/06 05:09:48;;;;;;;5.03;4.45;;;;;;;4.21;100.00;99685.25;6124086;23;20081;-72
2024/01/06 05:12:16;;;;;;;6.65;5.30;;;;;;;5.20;100.00;99850.81;6148021;23;20027;-74
2024/01/06 05:14:56;;;;;;;5.90;5.28;;;;;;;5.18;100.00;99861.25;6143931;23;20009;-72
2024/01/06 05:17:23;;;;;;;8.63;7.18;;;;;;;4.25;100.00;99749.13;6123766;23;20025;-70
2024/01/06 05:19:51;;;;;;;5.68;5.28;;;;;;;4.68;100.00;99811.44;6119677;23;20141;-72
2024/01/06 05:22:18;;;;;;;6.35;5.78;;;;;;;5.10;100.00;99889.38;6144611;17;20025;-71
2024/01/06 05:24:44;;;;;;;5.55;5.15;;;;;;;5.06;100.00;99889.56;6072642;23;20029;-71
2024/01/06 05:27:11;;;;;;;4.75;4.45;;;;;;;4.64;100.00;99823.72;6099373;23;20035;-72
2024/01/06 05:29:39;;;;;;;5.15;4.72;;;;;;;5.08;100.00;99887.75;6078342;23;20467;-69
2024/01/06 05:32:06;;;;;;;11.68;4.93;;;;;;;4.80;100.00;99849.91;6099653;23;20423;-70
2024/01/06 05:34:32;;;;;;;4.78;4.43;;;;;;;5.08;100.00;99893.78;6059388;23;20042;-69
2024/01/06 05:36:59;;;;;;;6.60;6.20;;;;;;;5.07;100.00;99894.72;6054730;23;20083;-71
2024/01/06 05:39:25;;;;;;;5.43;5.07;;;;;;;5.09;100.00;99897.22;6034105;23;20503;-72
2024/01/06 05:41:51;;;;;;;5.30;4.88;;;;;;;5.13;100.00;99897.06;6058881;23;20105;-70
2024/01/06 05:44:18;;;;;;;4.63;4.30;;;;;;;4.59;100.00;99810.91;6029857;23;20042;-72
2024/01/06 05:46:44;;;;;;;5.18;4.80;;;;;;;5.11;100.00;99892.81;6059255;23;20010;-70
2024/01/06 05:49:11;;;;;;;7.20;6.65;;;;;;;5.06;100.00;99890.41;6028648;23;20126;-69
2024/01/06 05:51:44;;;;;;;4.80;4.45;;;;;;;4.70;100.00;99836.44;6029502;23;20038;-70
2024/01/06 05:54:10;;;;;;;5.35;4.60;;;;;;;5.01;100.00;99889.75;6051469;23;20093;-72
2024/01/06 05:56:37;;;;;;;4.32;4.13;;;;;;;5.09;100.00;99903.28;6057850;23;20031;-71
2024/01/06 05:59:03;;;;;;;7.97;7.22;;;;;;;5.07;100.00;99894.72;6057528;23;20027;-72
2024/01/06 06:01:29;;;;;;;6.75;6.15;;;;;;;4.73;100.00;99849.31;6057662;23;20636;-72
2024/01/06 06:03:56;;;;;;;7.93;5.07;;;;;;;4.65;100.00;99848.81;6056514;23;20738;-72
2024/01/06 06:06:22;;;;;;;5.55;4.45;;;;;;;5.01;100.00;99905.34;6057329;23;20049;-72
2024/01/06 06:08:49;;;;;;;7.05;6.47;;;;;;;4.99;100.00;99905.44;6028788;23;20027;-70
2024/01/06 06:11:16;;;;;;;5.88;5.43;;;;;;;3.98;100.00;99736.34;6057254;23;20015;-69
2024/01/06 06:13:43;;;;;;;9.27;6.40;;;;;;;4.82;100.00;99873.25;6060395;23;20026;-71
2024/01/06 06:16:10;;;;;;;5.10;4.80;;;;;;;5.00;100.00;99911.47;6053206;23;20034;-71
2024/01/06 06:18:36;;;;;;;6.90;6.30;;;;;;;5.00;100.00;99906.28;6029470;23;20059;-71
2024/01/06 06:21:03;;;;;;;7.15;6.65;;;;;;;4.73;100.00;99856.25;6029967;23;20018;-72
2024/01/06 06:23:31;;;;;;;8.35;4.78;;;;;;;4.97;100.00;99906.38;6054817;23;20031;-72
2024/01/06 06:25:57;;;;;;;5.57;5.18;;;;;;;4.97;100.00;99916.78;6025753;23;20017;-70
2024/01/06 06:28:24;;;;;;;5.85;5.40;;;;;;;4.76;100.00;99882.13;6035043;23;20046;-69
2024/01/06 06:30:50;;;;;;;6.65;6.25;;;;;;;5.07;100.00;99928.53;6054041;23;20215;-69
2024/01/06 06:33:17;;;;;;;5.57;5.15;;;;;;;4.70;100.00;99877.19;6029019;23;20063;-71
2024/01/06 06:35:44;;;;;;;5.10;4.80;;;;;;;4.95;100.00;99918.59;6054464;23;20026;-70
2024/01/06 06:38:10;;;;;;;5.35;4.90;;;;;;;4.94;100.00;99922.97;6002878;23;20517;-72
2024/01/06 06:40:36;;;;;;;7.60;5.38;;;;;;;4.88;100.00;99918.03;6030549;23;20026;-70
2024/01/06 06:43:03;;;;;;;6.75;6.30;;;;;;;4.90;100.00;99926.59;6055668;23;20107;-70
2024/01/06 06:45:29;;;;;;;7.82;5.22;;;;;;;4.72;100.00;99899.59;6042677;23;20034;-70
2024/01/06 06:47:56;;;;;;;5.35;4.85;;;;;;;4.95;100.00;99942.88;6056617;23;20095;-69
2024/01/06 06:50:22;;;;;;;8.02;6.97;;;;;;;4.90;100.00;99928.38;6027865;23;20026;-70
2024/01/06 06:52:49;;;;;;;6.18;5.60;;;;;;;3.71;100.00;99753.00;6026517;23;20740;-70
2024/01/06 06:55:15;;;;;;;5.55;5.20;;;;;;;4.52;100.00;99871.00;6028610;23;20128;-70
2024/01/06 06:57:41;;;;;;;6.53;5.95;;;;;;;4.91;100.00;99940.44;6056803;23;20034;-72
2024/01/06 07:00:08;;;;;;;4.90;4.57;;;;;;;4.89;100.00;99944.84;6058125;23;20597;-70
2024/01/06 07:02:35;;;;;;;5.38;5.07;;;;;;;4.86;100.00;99926.81;6028270;23;20050;-70
2024/01/06 07:05:01;;;;;;;6.53;6.18;;;;;;;4.86;100.00;99945.84;6056388;23;20072;-70
2024/01/06 07:07:28;;;;;;;5.20;4.80;;;;;;;4.64;100.00;99908.63;6055842;23;20057;-70
2024/01/06 07:09:54;;;;;;;5.07;4.70;;;;;;;4.89;100.00;99957.84;6057615;23;20046;-69
2024/01/06 07:12:20;;;;;;;6.93;6.30;;;;;;;4.94;100.00;99955.94;6055567;23;20085;-70
2024/01/06 07:14:47;;;;;;;6.35;5.32;;;;;;;4.90;100.00;99949.16;6055806;23;20014;-70
2024/01/06 07:17:13;;;;;;;6.15;5.55;;;;;;;4.89;100.00;99961.31;6029221;23;20025;-70
2024/01/06 07:19:40;;;;;;;5.90;5.38;;;;;;;4.91;100.00;99954.31;6055600;23;20486;-70
2024/01/06 07:22:06;;;;;;;5.25;4.68;;;;;;;3.72;100.00;99770.28;6058590;23;20338;-71
2024/01/06 07:24:33;;;;;;;4.80;4.53;;;;;;;4.53;100.00;99901.25;6038661;23;20788;-70
2024/01/06 07:26:59;;;;;;;7.05;6.45;;;;;;;4.90;100.00;99964.75;6056308;23;20018;-69
2024/01/06 07:29:28;;;;;;;5.03;4.72;;;;;;;4.88;100.00;99953.59;6056049;23;20434;-70
2024/01/06 07:31:54;;;;;;;5.88;5.38;;;;;;;4.90;100.00;99963.00;6056589;23;20018;-70
2024/01/06 07:34:21;;;;;;;5.13;4.63;;;;;;;4.49;100.00;99886.69;6028520;23;20058;-70
2024/01/06 07:36:47;;;;;;;5.05;4.72;;;;;;;4.94;100.00;99943.75;6029155;23;20106;-72
2024/01/06 07:39:14;;;;;;;7.60;5.22;;;;;;;4.93;100.00;99929.09;6055397;23;20038;-70
2024/01/06 07:41:40;;;;;;;4.85;4.55;;;;;;;4.78;100.00;99912.34;6055656;23;20107;-70
2024/01/06 07:44:06;;;;;;;5.47;4.88;;;;;;;4.78;100.00;99917.53;6054992;23;20102;-70
2024/01/06 07:46:33;;;;;;;6.68;5.90;;;;;;;4.77;100.00;99921.06;6031855;23;20026;-72
2024/01/06 07:48:59;;;;;;;8.55;7.72;;;;;;;4.78;100.00;99935.75;6051560;23;20074;-70
2024/01/06 07:51:26;;;;;;;5.60;5.07;;;;;;;4.25;100.00;99865.13;6022576;23;20030;-70
2024/01/06 07:53:52;;;;;;;5.15;4.85;;;;;;;4.76;100.00;99941.91;6055203;23;20485;-72
2024/01/06 07:56:19;;;;;;;5.20;4.68;;;;;;;4.68;100.00;99939.63;6028346;23;20026;-72
2024/01/06 07:58:45;;;;;;;5.43;5.00;;;;;;;4.00;100.00;99837.53;6052277;23;20465;-72
2024/01/06 08:01:11;;;;;;;4.90;4.60;;;;;;;4.75;100.00;99961.00;6055277;23;20014;-72
2024/01/06 08:03:38;;;;;;;5.03;4.60;;;;;;;4.76;100.00;99967.91;6024875;23;20031;-72
2024/01/06 08:06:06;;;;;;;4.72;4.47;;;;;;;4.34;100.00;99914.97;6052523;23;20658;-72
2024/01/06 08:08:32;;;;;;;5.45;5.05;;;;;;;4.81;100.00;99989.34;6051888;23;20022;-71
2024/01/06 08:10:58;;;;;;;5.93;5.63;;;;;;;3.97;100.00;99842.88;6014560;23;20699;-72
2024/01/06 08:13:25;;;;;;;5.32;4.93;;;;;;;4.62;100.00;99947.66;6053035;23;20022;-72
2024/01/06 08:15:51;;;;;;;4.43;4.22;;;;;;;4.75;100.00;99972.28;6052186;23;20032;-71
2024/01/06 08:18:18;;;;;;;4.38;4.07;;;;;;;3.31;100.00;99739.00;6044317;23;20607;-72
2024/01/06 08:20:45;;;;;;;5.68;5.18;;;;;;;4.76;100.00;99981.75;6053021;23;20172;-71
2024/01/06 08:23:11;;;;;;;4.70;4.47;;;;;;;4.59;100.00;99974.63;6025769;23;20007;-72
2024/01/06 08:25:37;;;;;;;4.72;4.43;;;;;;;4.47;100.00;99982.03;6052816;23;20026;-72
2024/01/06 08:28:04;;;;;;;6.90;5.05;;;;;;;4.69;100.00;100019.31;5999305;23;20014;-73
2024/01/06 08:30:31;;;;;;;4.88;4.57;;;;;;;4.71;100.00;100020.09;6052410;23;20034;-74
2024/01/06 08:32:59;;;;;;;7.30;6.80;;;;;;;4.68;100.00;100014.16;6025408;23;20018;-70
2024/01/06 08:35:25;;;;;;;4.72;4.28;;;;;;;4.65;100.00;100017.72;6057156;23;20430;-69
2024/01/06 08:37:52;;;;;;;5.50;4.70;;;;;;;4.67;100.00;100021.13;6027762;23;20447;-70
2024/01/06 08:40:18;;;;;;;5.90;5.57;;;;;;;4.65;100.00;100027.25;6052014;23;20014;-71
2024/01/06 08:42:44;;;;;;;4.78;4.47;;;;;;;4.67;100.00;100047.09;6056591;23;20392;-73
2024/01/06 08:45:11;;;;;;;4.47;4.20;;;;;;;4.74;100.00;100074.53;6034666;23;20030;-73
2024/01/06 08:47:37;;;;;;;6.07;5.68;;;;;;;4.14;100.00;99970.28;6030356;23;20021;-70
2024/01/06 08:50:04;;;;;;;6.13;5.63;;;;;;;4.86;100.00;100086.22;6030164;23;20041;-71
2024/01/06 08:52:31;;;;;;;4.40;4.15;;;;;;;4.86;100.00;100085.38;6027553;23;20105;-72
2024/01/06 08:54:57;;;;;;;7.38;6.88;;;;;;;4.04;100.00;99961.13;6053068;23;20099;-71
2024/01/06 08:57:24;;;;;;;5.25;4.82;;;;;;;4.69;100.00;100086.88;6056797;23;20037;-69
2024/01/06 08:59:50;;;;;;;4.88;4.47;;;;;;;4.74;100.00;100095.34;6056288;23;20056;-71
2024/01/06 09:02:17;;;;;;;5.47;4.82;;;;;;;4.86;100.00;100116.59;6056756;23;20077;-71
2024/01/06 09:04:43;;;;;;;5.80;5.40;;;;;;;4.83;100.00;100112.34;6056903;23;20022;-71
2024/01/06 09:07:10;;;;;;;5.90;5.45;;;;;;;4.80;100.00;100118.50;6028238;23;20090;-71
2024/01/06 09:09:37;;;;;;;4.95;4.47;;;;;;;4.25;100.00;100049.53;6029713;23;20587;-71
2024/01/06 09:12:03;;;;;;;6.50;5.90;;;;;;;4.56;100.00;100083.88;6024113;23;20067;-71
2024/01/06 09:14:32;;;;;;;10.43;5.95;;;;;;;3.75;100.00;99944.88;6056945;23;20065;-71
2024/01/06 09:16:58;;;;;;;7.47;6.85;;;;;;;4.40;100.00;100054.19;6055834;23;20438;-71
2024/01/06 09:19:28;;;;;;;5.82;5.28;;;;;;;4.25;100.00;100020.97;6030130;23;20019;-71
2024/01/06 09:21:54;;;;;;;6.18;5.68;;;;;;;4.33;100.00;100048.38;6056937;23;20503;-71
2024/01/06 09:24:21;;;;;;;5.03;4.70;;;;;;;4.38;100.00;100054.22;6058534;23;20040;-71
2024/01/06 09:26:48;;;;;;;5.82;5.30;;;;;;;4.73;100.00;100101.44;6055255;23;20020;-70
2024/01/06 09:29:14;;;;;;;5.63;5.22;;;;;;;4.76;100.00;100105.69;6058725;23;20488;-71
2024/01/06 09:31:43;;;;;;;5.47;4.68;;;;;;;4.72;100.00;100107.53;6027890;23;20026;-71
2024/01/06 09:34:12;;;;;;;5.47;5.18;;;;;;;4.64;100.00;100106.97;6029413;23;20019;-72
2024/01/06 09:36:39;;;;;;;5.70;4.78;;;;;;;4.24;100.00;100032.28;6053461;23;20019;-71
2024/01/06 09:39:06;;;;;;;6.47;5.95;;;;;;;4.59;100.00;100086.38;6001694;23;20086;-71
2024/01/06 09:41:33;;;;;;;5.40;5.00;;;;;;;4.82;100.00;100131.44;6055008;23;20141;-72
2024/01/06 09:43:59;;;;;;;5.30;4.90;;;;;;;4.77;100.00;100116.03;6031434;23;20026;-71
2024/01/06 09:46:29;;;;;;;5.13;4.72;;;;;;;4.58;100.00;100081.22;6037257;23;20173;-70
2024/01/06 09:48:57;;;;;;;6.82;6.30;;;;;;;4.70;100.00;100108.50;6052300;23;20115;-70
2024/01/06 09:51:28;;;;;;;5.72;5.43;;;;;;;4.77;100.00;100116.03;6001267;23;20584;-70
2024/01/06 09:54:07;;;;;;;5.15;4.75;;;;;;;4.83;100.00;100130.56;6073781;23;20030;-70
2024/01/06 09:56:34;;;;;;;5.95;5.50;;;;;;;4.73;100.00;100113.59;6054566;23;20018;-70
2024/01/06 09:59:01;;;;;;;7.15;6.57;;;;;;;4.48;100.00;100072.09;6058097;23;20015;-71
2024/01/06 10:01:27;;;;;;;4.95;4.65;;;;;;;4.38;100.00;100056.81;6029174;23;20019;-73
2024/01/06 10:03:54;;;;;;;4.75;4.20;;;;;;;4.80;100.00;100115.91;6054779;23;20166;-71
2024/01/06 10:06:20;;;;;;;5.13;4.68;;;;;;;4.46;100.00;100060.91;6029921;23;20011;-71
2024/01/06 10:08:49;;;;;;;5.85;5.35;;;;;;;4.89;100.00;100124.25;6024314;23;20066;-72
2024/01/06 10:11:15;;;;;;;6.60;6.10;;;;;;;4.86;100.00;100122.63;6037946;23;20019;-72
2024/01/06 10:13:41;;;;;;;5.22;4.47;;;;;;;4.78;100.00;100094.31;6053628;23;20022;-71
2024/01/06 10:16:08;;;;;;;4.60;4.30;;;;;;;4.82;100.00;100094.22;6027749;23;20029;-70
2024/01/06 10:18:35;;;;;;;4.90;4.55;;;;;;;4.10;100.00;99978.25;6053936;23;20093;-70
2024/01/06 10:21:06;;;;;;;6.57;6.07;;;;;;;4.16;100.00;99988.41;6053779;23;20098;-70
2024/01/06 10:23:33;;;;;;;4.68;4.28;;;;;;;4.34;100.00;100028.44;6032524;23;20010;-71
2024/01/06 10:26:00;;;;;;;5.53;5.13;;;;;;;4.53;100.00;100057.16;6051644;23;20022;-72
2024/01/06 10:28:31;;;;;;;4.50;4.30;;;;;;;4.82;100.00;100102.00;6051425;23;20029;-72
2024/01/06 10:30:57;;;;;;;6.32;5.93;;;;;;;4.71;100.00;100087.66;6051766;23;20022;-72
2024/01/06 10:33:25;;;;;;;5.40;4.95;;;;;;;4.74;100.00;100092.72;6028038;23;20017;-72
2024/01/06 10:35:55;;;;;;;5.43;4.93;;;;;;;3.75;100.00;99972.59;6055784;23;20739;-71
2024/01/06 10:38:21;;;;;;;5.43;5.05;;;;;;;3.75;100.00;99925.88;6056077;23;20109;-71
2024/01/06 10:40:59;;;;;;;6.20;5.80;;;;;;;4.86;100.00;100093.19;6049120;23;20030;-72
2024/01/06 10:43:28;;;;;;;5.32;4.93;;;;;;;4.54;100.00;100057.09;6054255;23;20022;-72
2024/01/06 10:45:59;;;;;;;4.45;4.25;;;;;;;4.68;100.00;100059.19;6022008;23;20086;-71
2024/01/06 10:48:26;;;;;;;5.30;4.63;;;;;;;4.98;100.00;100111.75;6046162;23;20019;-72
2024/01/06 10:50:54;;;;;;;6.75;6.35;;;;;;;4.94;100.00;100106.72;6023137;23;20500;-70
2024/01/06 10:53:22;;;;;;;5.78;4.88;;;;;;;4.89;100.00;100109.53;6050534;23;20450;-71
2024/01/06 10:55:52;;;;;;;4.03;3.83;;;;;;;4.90;100.00;100115.56;6018966;23;20027;-70
2024/01/06 10:58:22;;;;;;;5.65;5.25;;;;;;;4.91;100.00;100112.03;6055348;23;20019;-72
2024/01/06 11:00:49;;;;;;;6.43;6.10;;;;;;;4.47;100.00;100059.97;6048902;23;20030;-71
2024/01/06 11:03:17;;;;;;;4.72;4.40;;;;;;;3.82;100.00;100031.16;6023292;23;20097;-69
2024/01/06 11:05:45;;;;;;;5.38;5.07;;;;;;;4.32;100.00;100147.13;6053444;23;20041;-69
2024/01/06 11:08:12;;;;;;;6.05;4.72;;;;;;;4.23;100.00;100160.41;6024494;23;20025;-70
2024/01/06 11:10:40;;;;;;;6.30;5.80;;;;;;;4.41;100.00;100201.38;6045680;23;20036;-70
2024/01/06 11:13:11;;;;;;;6.97;6.38;;;;;;;4.52;100.00;100220.00;6036303;23;20022;-69
2024/01/06 11:15:46;;;;;;;7.10;5.32;;;;;;;4.55;100.00;100217.31;6013213;23;20029;-69
2024/01/06 11:18:34;;;;;;;6.38;5.82;;;;;;;4.42;100.00;100203.06;6040759;23;20109;-69
2024/01/06 11:21:12;;;;;;;6.70;6.28;;;;;;;4.51;100.00;100217.47;6035910;23;20017;-69
2024/01/06 11:23:40;;;;;;;5.00;4.70;;;;;;;4.55;100.00;100206.94;6040431;23;20088;-69
2024/01/06 11:26:07;;;;;;;5.45;4.78;;;;;;;4.54;100.00;100206.97;6041839;23;20089;-69
2024/01/06 11:28:50;;;;;;;8.40;5.05;;;;;;;4.11;100.00;100148.69;6012520;23;20026;-69
2024/01/06 11:31:18;;;;;;;6.05;5.63;;;;;;;4.21;100.00;100168.28;6013171;23;20034;-69
2024/01/06 11:33:50;;;;;;;5.47;5.10;;;;;;;4.38;100.00;100206.66;6040361;23;20057;-70
2024/01/06 11:36:19;;;;;;;5.63;5.22;;;;;;;4.26;100.00;100207.09;6068978;23;20094;-70
2024/01/06 11:38:50;;;;;;;5.93;5.10;;;;;;;4.32;100.00;100223.31;6037140;23;20082;-69
2024/01/06 11:41:47;;;;;;;5.60;5.10;;;;;;;4.18;100.00;100215.13;5871285;23;20085;-70